createdAt,value
2018-06-24T00:01:09.594Z,3.30
2018-06-24T00:03:37.738Z,3.30
2018-06-24T00:06:06.046Z,3.97
2018-06-24T00:08:34.360Z,3.20
2018-06-24T00:11:02.625Z,3.90
2018-06-24T00:13:30.949Z,3.40
2018-06-24T00:15:59.224Z,3.57
2018-06-24T00:18:27.579Z,3.33
2018-06-24T00:20:55.830Z,3.50
2018-06-24T00:23:24.095Z,3.57
2018-06-24T00:25:52.399Z,3.02
2018-06-24T00:28:20.711Z,3.90
2018-06-24T00:30:48.998Z,4.20
2018-06-24T00:33:17.325Z,3.60
2018-06-24T00:35:45.607Z,3.67
2018-06-24T00:38:13.855Z,3.57
2018-06-24T00:40:42.127Z,3.80
2018-06-24T00:43:10.382Z,3.53
2018-06-24T00:45:38.720Z,3.90
2018-06-24T00:48:07.030Z,3.45
2018-06-24T00:50:35.289Z,3.50
2018-06-24T00:53:03.677Z,3.70
2018-06-24T00:55:31.968Z,3.37
2018-06-24T00:58:00.494Z,3.45
2018-06-24T01:00:28.867Z,4.10
2018-06-24T01:02:57.162Z,3.97
2018-06-24T01:05:25.436Z,4.07
2018-06-24T01:07:53.762Z,4.03
2018-06-24T01:10:22.065Z,4.10
2018-06-24T01:12:50.413Z,4.00
2018-06-24T01:15:18.697Z,3.60
2018-06-24T01:17:46.966Z,3.70
2018-06-24T01:20:15.354Z,4.10
2018-06-24T01:22:43.652Z,3.80
2018-06-24T01:25:11.934Z,3.70
2018-06-24T01:27:40.349Z,4.07
2018-06-24T01:30:08.629Z,3.63
2018-06-24T01:32:36.918Z,4.10
2018-06-24T01:35:05.224Z,4.10
2018-06-24T01:37:33.632Z,3.63
2018-06-24T01:40:02.023Z,4.00
2018-06-24T01:42:30.435Z,3.45
2018-06-24T01:44:58.698Z,3.67
2018-06-24T01:47:26.999Z,4.23
2018-06-24T01:49:55.377Z,3.90
2018-06-24T01:52:23.633Z,4.20
2018-06-24T01:54:51.917Z,3.80
2018-06-24T01:57:20.243Z,3.90
2018-06-24T01:59:48.550Z,4.27
2018-06-24T02:02:16.860Z,3.50
2018-06-24T02:04:45.197Z,3.80
2018-06-24T02:07:13.528Z,4.10
2018-06-24T02:09:41.786Z,4.17
2018-06-24T02:12:10.159Z,4.50
2018-06-24T02:14:38.460Z,4.20
2018-06-24T02:17:06.520Z,4.50
2018-06-24T02:19:34.880Z,4.27
2018-06-24T02:22:03.219Z,4.40
2018-06-24T02:24:31.514Z,4.60
2018-06-24T02:26:59.842Z,4.30
2018-06-24T02:29:28.136Z,4.27
2018-06-24T02:31:56.396Z,4.73
2018-06-24T02:34:24.723Z,4.30
2018-06-24T02:36:52.990Z,4.55
2018-06-24T02:39:21.420Z,4.13
2018-06-24T02:41:49.746Z,4.63
2018-06-24T02:44:18.191Z,4.70
2018-06-24T02:46:46.452Z,4.47
2018-06-24T02:49:14.786Z,4.00
2018-06-24T02:51:43.047Z,4.50
2018-06-24T02:54:11.380Z,4.50
2018-06-24T02:56:39.719Z,5.27
2018-06-24T02:59:07.984Z,4.62
2018-06-24T03:01:36.273Z,4.53
2018-06-24T03:04:04.583Z,4.37
2018-06-24T03:06:32.911Z,5.33
2018-06-24T03:09:01.370Z,5.22
2018-06-24T03:11:29.655Z,4.33
2018-06-24T03:13:58.038Z,4.83
2018-06-24T03:16:26.304Z,4.37
2018-06-24T03:18:54.592Z,4.37
2018-06-24T03:21:22.653Z,3.77
2018-06-24T03:23:50.958Z,4.30
2018-06-24T03:26:19.225Z,4.10
2018-06-24T03:28:47.478Z,3.77
2018-06-24T03:31:15.591Z,3.80
2018-06-24T03:33:43.842Z,4.10
2018-06-24T03:36:12.207Z,3.70
2018-06-24T03:38:40.532Z,4.23
2018-06-24T03:41:09.699Z,3.77
2018-06-24T03:43:37.994Z,4.43
2018-06-24T03:46:06.339Z,4.20
2018-06-24T03:48:34.678Z,4.50
2018-06-24T03:51:02.963Z,4.50
2018-06-24T03:53:31.334Z,3.90
2018-06-24T03:55:59.622Z,5.37
2018-06-24T03:58:27.890Z,4.20
2018-06-24T04:00:56.221Z,4.37
2018-06-24T04:03:24.487Z,4.20
2018-06-24T04:05:52.853Z,4.30
2018-06-24T04:08:21.270Z,4.60
2018-06-24T04:10:49.524Z,4.20
2018-06-24T04:13:17.571Z,4.27
2018-06-24T04:15:45.865Z,4.20
2018-06-24T04:18:14.272Z,4.40
2018-06-24T04:20:42.574Z,4.70
2018-06-24T04:23:10.853Z,3.90
2018-06-24T04:25:39.188Z,4.10
2018-06-24T04:28:07.784Z,3.87
2018-06-24T04:30:36.101Z,3.93
2018-06-24T04:33:04.658Z,4.07
2018-06-24T04:35:32.958Z,4.70
2018-06-24T04:38:01.256Z,4.03
2018-06-24T04:40:29.280Z,4.10
2018-06-24T04:42:57.579Z,4.03
2018-06-24T04:45:25.911Z,4.53
2018-06-24T04:47:54.251Z,4.42
2018-06-24T04:50:22.525Z,4.50
2018-06-24T04:52:50.795Z,4.33
2018-06-24T04:55:19.105Z,4.90
2018-06-24T04:59:09.434Z,5.17
2018-06-24T05:01:37.766Z,5.07
2018-06-24T05:04:06.160Z,4.92
2018-06-24T05:06:34.469Z,4.70
2018-06-24T05:09:02.739Z,4.90
2018-06-24T05:11:31.061Z,5.00
2018-06-24T05:13:59.457Z,5.40
2018-06-24T05:16:27.692Z,4.95
2018-06-24T05:18:56.018Z,4.70
2018-06-24T05:21:24.298Z,5.03
2018-06-24T05:23:52.724Z,5.63
2018-06-24T05:26:20.967Z,4.97
2018-06-24T05:28:49.238Z,6.03
2018-06-24T05:31:17.557Z,5.20
2018-06-24T05:33:45.896Z,5.62
2018-06-24T05:36:14.206Z,5.90
2018-06-24T05:38:42.542Z,5.70
2018-06-24T05:41:10.885Z,5.47
2018-06-24T05:43:39.155Z,6.00
2018-06-24T05:46:07.511Z,6.57
2018-06-24T05:48:35.846Z,5.83
2018-06-24T05:51:04.145Z,6.50
2018-06-24T05:53:32.660Z,6.13
2018-06-24T05:56:00.940Z,6.73
2018-06-24T05:58:29.322Z,6.40
2018-06-24T06:00:57.653Z,6.50
2018-06-24T06:03:26.046Z,6.70
2018-06-24T06:05:54.375Z,7.27
2018-06-24T06:08:23.814Z,8.43
2018-06-24T06:10:52.328Z,7.57
2018-06-24T06:13:20.570Z,7.30
2018-06-24T06:15:48.910Z,7.73
2018-06-24T06:18:17.142Z,7.40
2018-06-24T06:20:47.914Z,7.25
2018-06-24T06:23:18.347Z,8.07
2018-06-24T06:25:46.730Z,6.60
2018-06-24T06:28:15.042Z,6.73
2018-06-24T06:30:43.375Z,6.83
2018-06-24T06:33:11.640Z,6.97
2018-06-24T06:35:39.941Z,7.07
2018-06-24T06:38:08.217Z,7.50
2018-06-24T06:40:36.495Z,8.33
2018-06-24T06:43:04.871Z,8.27
2018-06-24T06:45:33.228Z,7.63
2018-06-24T06:48:01.614Z,7.80
2018-06-24T06:50:29.973Z,7.93
2018-06-24T06:52:58.220Z,8.35
2018-06-24T06:55:26.568Z,8.70
2018-06-24T06:57:54.908Z,8.73
2018-06-24T07:00:23.288Z,9.43
2018-06-24T07:02:51.558Z,9.30
2018-06-24T07:05:20.761Z,9.07
2018-06-24T07:07:49.071Z,9.00
2018-06-24T07:10:17.325Z,7.83
2018-06-24T07:12:45.598Z,8.47
2018-06-24T07:15:13.917Z,8.00
2018-06-24T07:17:42.253Z,9.23
2018-06-24T07:20:10.610Z,7.57
2018-06-24T07:22:38.920Z,7.53
2018-06-24T07:25:07.249Z,7.80
2018-06-24T07:27:35.526Z,9.20
2018-06-24T07:30:03.796Z,8.60
2018-06-24T07:32:32.142Z,8.13
2018-06-24T07:35:00.444Z,8.10
2018-06-24T07:37:28.861Z,7.77
2018-06-24T07:39:57.191Z,8.00
2018-06-24T07:42:25.460Z,8.70
2018-06-24T07:44:53.793Z,7.67
2018-06-24T07:47:22.276Z,8.15
2018-06-24T07:49:50.591Z,6.77
2018-06-24T07:52:19.069Z,8.23
2018-06-24T07:54:47.371Z,8.17
2018-06-24T07:57:15.556Z,8.80
2018-06-24T07:59:43.876Z,8.00
2018-06-24T08:02:12.144Z,7.10
2018-06-24T08:04:40.503Z,7.03
2018-06-24T08:07:08.848Z,7.40
2018-06-24T08:09:37.199Z,7.05
2018-06-24T08:12:05.906Z,8.83
2018-06-24T08:14:34.253Z,8.07
2018-06-24T08:17:02.585Z,7.07
2018-06-24T08:19:30.871Z,7.33
2018-06-24T08:21:59.213Z,9.23
2018-06-24T08:24:27.506Z,7.80
2018-06-24T08:26:55.722Z,6.83
2018-06-24T08:29:23.998Z,7.20
2018-06-24T08:31:52.264Z,8.17
2018-06-24T08:34:20.538Z,7.10
2018-06-24T08:36:48.866Z,6.57
2018-06-24T08:39:17.118Z,6.63
2018-06-24T08:41:45.367Z,6.90
2018-06-24T08:44:13.792Z,7.50
2018-06-24T08:46:42.147Z,7.00
2018-06-24T08:49:10.397Z,6.77
2018-06-24T08:51:38.659Z,6.40
2018-06-24T08:54:06.961Z,6.60
2018-06-24T08:56:35.270Z,6.73
2018-06-24T08:59:03.602Z,6.40
2018-06-24T09:01:31.915Z,6.40
2018-06-24T09:04:00.219Z,6.25
2018-06-24T09:06:28.517Z,6.57
2018-06-24T09:08:56.802Z,6.15
2018-06-24T09:11:25.082Z,7.80
2018-06-24T09:13:53.510Z,8.30
2018-06-24T09:16:21.786Z,7.73
2018-06-24T09:18:50.061Z,6.63
2018-06-24T09:21:18.375Z,6.67
2018-06-24T09:23:46.681Z,7.63
2018-06-24T09:26:14.757Z,6.77
2018-06-24T09:28:43.123Z,5.50
2018-06-24T09:31:11.426Z,6.00
2018-06-24T09:33:39.812Z,6.47
2018-06-24T09:36:08.152Z,6.57
2018-06-24T09:38:36.414Z,6.60
2018-06-24T09:41:04.791Z,5.77
2018-06-24T09:43:33.094Z,6.50
2018-06-24T09:46:01.605Z,6.05
2018-06-24T09:48:29.942Z,5.80
2018-06-24T09:50:58.220Z,6.13
2018-06-24T09:53:26.574Z,5.77
2018-06-24T09:55:54.861Z,5.00
2018-06-24T09:58:35.000Z,6.73
2018-06-24T10:01:16.428Z,6.03
2018-06-24T10:03:44.725Z,6.17
2018-06-24T10:06:13.090Z,6.23
2018-06-24T10:08:41.405Z,4.90
2018-06-24T10:11:09.783Z,4.47
2018-06-24T10:13:38.054Z,4.83
2018-06-24T10:16:06.519Z,4.80
2018-06-24T10:18:34.971Z,4.50
2018-06-24T10:21:03.256Z,5.13
2018-06-24T10:23:31.661Z,5.67
2018-06-24T10:26:00.209Z,5.80
2018-06-24T10:28:28.533Z,5.63
2018-06-24T10:30:56.888Z,4.73
2018-06-24T10:33:25.173Z,5.57
2018-06-24T10:35:53.578Z,5.70
2018-06-24T10:38:21.896Z,4.85
2018-06-24T10:40:50.208Z,5.33
2018-06-24T10:43:18.534Z,5.40
2018-06-24T10:45:46.859Z,5.60
2018-06-24T10:48:15.134Z,6.67
2018-06-24T10:50:43.438Z,5.67
2018-06-24T10:53:11.864Z,4.50
2018-06-24T10:55:40.214Z,5.07
2018-06-24T10:58:08.491Z,5.73
2018-06-24T11:00:37.201Z,5.80
2018-06-24T11:03:05.805Z,5.30
2018-06-24T11:05:34.226Z,5.60
2018-06-24T11:08:02.638Z,5.60
2018-06-24T11:10:30.884Z,6.12
2018-06-24T11:12:59.211Z,5.80
2018-06-24T11:15:27.185Z,5.27
2018-06-24T11:17:55.590Z,5.77
2018-06-24T11:20:23.879Z,6.10
2018-06-24T11:22:52.328Z,5.80
2018-06-24T11:25:20.681Z,5.20
2018-06-24T11:27:48.968Z,5.13
2018-06-24T11:30:17.296Z,5.03
2018-06-24T11:32:45.666Z,4.62
2018-06-24T11:35:13.993Z,5.17
2018-06-24T11:37:42.299Z,4.50
2018-06-24T11:40:10.604Z,4.87
2018-06-24T11:42:38.859Z,4.50
2018-06-24T11:45:07.357Z,4.60
2018-06-24T11:47:35.676Z,4.80
2018-06-24T11:50:04.098Z,5.10
2018-06-24T11:52:32.439Z,4.30
2018-06-24T11:55:00.479Z,4.13
2018-06-24T11:57:28.969Z,4.37
2018-06-24T11:59:57.546Z,4.20
2018-06-24T12:02:25.916Z,3.70
2018-06-24T12:04:54.189Z,3.92
2018-06-24T12:07:22.501Z,3.97
2018-06-24T12:09:50.829Z,4.50
2018-06-24T12:12:19.193Z,4.20
2018-06-24T12:14:47.531Z,4.70
2018-06-24T12:17:15.844Z,4.00
2018-06-24T12:19:44.228Z,4.40
2018-06-24T12:22:12.541Z,3.50
2018-06-24T12:24:40.840Z,4.10
2018-06-24T12:27:09.207Z,3.67
2018-06-24T12:29:37.561Z,4.00
2018-06-24T12:32:05.863Z,4.03
2018-06-24T12:34:34.126Z,4.80
2018-06-24T12:37:02.407Z,4.23
2018-06-24T12:39:30.679Z,3.60
2018-06-24T12:41:58.955Z,4.60
2018-06-24T12:44:27.246Z,3.80
2018-06-24T12:46:55.709Z,3.93
2018-06-24T12:49:24.128Z,3.77
2018-06-24T12:51:52.658Z,3.93
2018-06-24T12:54:21.103Z,4.47
2018-06-24T12:56:49.491Z,3.40
2018-06-24T12:59:18.028Z,3.70
2018-06-24T13:01:46.345Z,3.90
2018-06-24T13:04:14.831Z,3.13
2018-06-24T13:06:43.376Z,3.87
2018-06-24T13:09:11.919Z,3.30
2018-06-24T13:11:40.303Z,4.10
2018-06-24T13:14:08.805Z,2.93
2018-06-24T13:16:37.361Z,3.20
2018-06-24T13:19:05.945Z,3.50
2018-06-24T13:21:34.205Z,3.30
2018-06-24T13:24:02.546Z,2.90
2018-06-24T13:26:30.843Z,2.90
2018-06-24T13:28:59.200Z,3.23
2018-06-24T13:31:27.539Z,2.90
2018-06-24T13:33:55.902Z,2.87
2018-06-24T13:36:24.265Z,3.30
2018-06-24T13:38:52.555Z,2.87
2018-06-24T13:41:20.819Z,2.77
2018-06-24T13:43:49.239Z,2.62
2018-06-24T13:46:17.523Z,2.90
2018-06-24T13:48:45.841Z,2.50
2018-06-24T13:51:14.150Z,3.17
2018-06-24T13:53:42.411Z,2.90
2018-06-24T13:56:10.754Z,3.23
2018-06-24T13:58:39.081Z,2.87
2018-06-24T14:01:07.397Z,3.10
2018-06-24T14:03:35.872Z,3.00
2018-06-24T14:06:04.289Z,2.70
2018-06-24T14:08:32.583Z,2.40
2018-06-24T14:11:00.894Z,2.50
2018-06-24T14:13:29.250Z,2.57
2018-06-24T14:15:57.651Z,3.30
2018-06-24T14:18:25.981Z,2.20
2018-06-24T14:20:54.284Z,2.70
2018-06-24T14:23:22.673Z,3.00
2018-06-24T14:25:50.891Z,2.83
2018-06-24T14:28:19.189Z,2.80
2018-06-24T14:30:47.478Z,2.60
2018-06-24T14:33:15.781Z,2.53
2018-06-24T14:35:44.190Z,2.70
2018-06-24T14:38:12.641Z,2.37
2018-06-24T14:40:41.034Z,2.60
2018-06-24T14:43:09.357Z,3.37
2018-06-24T14:45:37.791Z,2.37
2018-06-24T14:48:06.271Z,3.00
2018-06-24T14:50:34.732Z,2.67
2018-06-24T14:53:03.183Z,2.37
2018-06-24T14:55:31.659Z,3.03
2018-06-24T14:57:59.965Z,3.10
2018-06-24T15:00:29.399Z,2.63
2018-06-24T15:02:57.714Z,3.10
2018-06-24T15:05:26.009Z,3.00
2018-06-24T15:07:54.313Z,2.57
2018-06-24T15:10:22.620Z,3.40
2018-06-24T15:12:50.978Z,2.67
2018-06-24T15:15:19.285Z,2.80
2018-06-24T15:17:47.630Z,2.97
2018-06-24T15:20:16.371Z,2.80
2018-06-24T15:22:44.645Z,3.20
2018-06-24T15:25:12.970Z,3.30
2018-06-24T15:27:41.382Z,2.80
2018-06-24T15:30:09.661Z,2.97
2018-06-24T15:32:38.074Z,2.97
2018-06-24T15:35:06.397Z,3.20
2018-06-24T15:37:34.707Z,3.30
2018-06-24T15:40:03.001Z,4.00
2018-06-24T15:42:31.285Z,3.67
2018-06-24T15:44:59.630Z,3.70
2018-06-24T15:47:27.964Z,3.37
2018-06-24T15:49:56.279Z,3.73
2018-06-24T15:52:24.619Z,3.23
2018-06-24T15:54:53.087Z,3.70
2018-06-24T15:57:21.366Z,3.50
2018-06-24T15:59:49.751Z,3.50
2018-06-24T16:02:18.114Z,3.47
2018-06-24T16:04:46.388Z,4.00
2018-06-24T16:07:14.711Z,3.93
2018-06-24T16:09:43.001Z,4.07
2018-06-24T16:12:11.387Z,5.20
2018-06-24T16:14:39.687Z,5.00
2018-06-24T16:17:08.100Z,4.50
2018-06-24T16:19:36.429Z,4.10
2018-06-24T16:22:04.740Z,4.70
2018-06-24T16:24:33.034Z,3.50
2018-06-24T16:27:01.435Z,5.10
2018-06-24T16:29:29.806Z,4.73
2018-06-24T16:31:58.108Z,5.13
2018-06-24T16:34:26.440Z,4.00
2018-06-24T16:36:54.746Z,4.30
2018-06-24T16:39:23.212Z,5.40
2018-06-24T16:41:51.634Z,3.77
2018-06-24T16:44:19.970Z,3.83
2018-06-24T16:46:48.397Z,4.20
2018-06-24T16:49:17.076Z,4.30
2018-06-24T16:51:45.604Z,4.17
2018-06-24T16:54:14.050Z,4.83
2018-06-24T16:56:42.431Z,4.20
2018-06-24T16:59:10.847Z,13.83
2018-06-24T17:01:39.148Z,5.60
2018-06-24T17:04:07.470Z,5.03
2018-06-24T17:06:35.767Z,5.40
2018-06-24T17:09:06.682Z,5.22
2018-06-24T17:11:34.931Z,5.33
2018-06-24T17:14:03.245Z,5.77
2018-06-24T17:16:31.624Z,4.60
2018-06-24T17:18:59.999Z,5.90
2018-06-24T17:21:28.348Z,6.00
2018-06-24T17:23:56.624Z,5.17
2018-06-24T17:26:24.960Z,7.43
2018-06-24T17:28:53.259Z,29.03
2018-06-24T17:31:21.855Z,10.45
2018-06-24T17:33:50.311Z,15.33
2018-06-24T17:36:18.646Z,10.27
2018-06-24T17:38:46.985Z,5.37
2018-06-24T17:41:16.162Z,4.23
2018-06-24T17:43:44.500Z,7.10
2018-06-24T17:46:12.561Z,4.60
2018-06-24T17:48:40.941Z,4.47
2018-06-24T17:51:09.398Z,4.83
2018-06-24T17:53:37.717Z,5.90
2018-06-24T17:56:06.040Z,7.00
2018-06-24T17:58:34.342Z,4.67
2018-06-24T18:01:02.691Z,5.07
2018-06-24T18:03:30.987Z,4.22
2018-06-24T18:05:59.282Z,5.40
2018-06-24T18:08:27.556Z,4.50
2018-06-24T18:10:55.934Z,5.20
2018-06-24T18:13:24.267Z,4.67
2018-06-24T18:15:52.596Z,4.70
2018-06-24T18:18:21.965Z,4.90
2018-06-24T18:20:50.261Z,4.80
2018-06-24T18:23:18.503Z,5.00
2018-06-24T18:25:46.974Z,4.03
2018-06-24T18:28:15.352Z,4.83
2018-06-24T18:30:43.719Z,4.67
2018-06-24T18:33:12.150Z,4.60
2018-06-24T18:35:40.491Z,3.87
2018-06-24T18:38:08.847Z,4.03
2018-06-24T18:40:37.260Z,4.60
2018-06-24T18:43:05.831Z,4.27
2018-06-24T18:45:34.252Z,5.20
2018-06-24T18:48:02.582Z,4.70
2018-06-24T18:50:31.028Z,4.60
2018-06-24T18:52:59.364Z,4.47
2018-06-24T18:55:27.697Z,4.53
2018-06-24T18:57:56.041Z,4.67
2018-06-24T19:00:24.444Z,5.17
2018-06-24T19:02:53.155Z,4.77
2018-06-24T19:05:22.636Z,4.00
2018-06-24T19:07:51.109Z,4.22
2018-06-24T19:10:19.412Z,4.80
2018-06-24T19:12:47.973Z,4.53
2018-06-24T19:15:16.343Z,4.20
2018-06-24T19:17:44.597Z,4.80
2018-06-24T19:20:12.940Z,4.30
2018-06-24T19:22:41.237Z,3.97
2018-06-24T19:25:09.569Z,4.23
2018-06-24T19:27:37.986Z,4.70
2018-06-24T19:30:12.093Z,4.50
2018-06-24T19:32:40.404Z,4.73
2018-06-24T19:35:08.784Z,4.83
2018-06-24T19:37:37.168Z,4.87
2018-06-24T19:40:05.880Z,4.03
2018-06-24T19:42:35.300Z,4.77
2018-06-24T19:45:03.715Z,4.13
2018-06-24T19:47:32.031Z,4.80
2018-06-24T19:50:00.574Z,5.03
2018-06-24T19:52:28.856Z,5.73
2018-06-24T19:54:57.323Z,4.33
2018-06-24T19:57:25.834Z,4.50
2018-06-24T19:59:54.184Z,4.70
2018-06-24T20:02:22.555Z,4.67
2018-06-24T20:04:51.095Z,4.50
2018-06-24T20:07:19.638Z,4.20
2018-06-24T20:09:47.985Z,4.00
2018-06-24T20:12:16.355Z,4.93
2018-06-24T20:14:44.655Z,4.13
2018-06-24T20:17:12.952Z,4.80
2018-06-24T20:19:41.416Z,4.70
2018-06-24T20:22:09.845Z,4.00
2018-06-24T20:24:38.376Z,4.33
2018-06-24T20:27:06.763Z,3.60
2018-06-24T20:29:35.120Z,4.57
2018-06-24T20:32:03.524Z,4.25
2018-06-24T20:34:31.938Z,4.13
2018-06-24T20:37:00.292Z,4.70
2018-06-24T20:39:28.705Z,4.17
2018-06-24T20:41:57.096Z,4.37
2018-06-24T20:44:26.450Z,4.20
2018-06-24T20:46:54.892Z,4.10
2018-06-24T20:49:23.278Z,4.20
2018-06-24T20:51:51.747Z,4.83
2018-06-24T20:54:20.061Z,4.30
2018-06-24T20:56:48.394Z,5.33
2018-06-24T20:59:16.680Z,4.53
2018-06-24T21:01:45.083Z,4.47
2018-06-24T21:04:13.320Z,4.53
2018-06-24T21:06:41.611Z,4.70
2018-06-24T21:09:11.147Z,4.90
2018-06-24T21:11:39.506Z,4.77
2018-06-24T21:14:07.819Z,4.87
2018-06-24T21:16:36.395Z,5.03
2018-06-24T21:19:04.879Z,5.60
2018-06-24T21:21:33.204Z,5.20
2018-06-24T21:24:01.481Z,6.10
2018-06-24T21:26:29.893Z,5.77
2018-06-24T21:28:58.376Z,5.70
2018-06-24T21:31:26.656Z,6.80
2018-06-24T21:33:55.016Z,6.70
2018-06-24T21:36:23.354Z,6.90
2018-06-24T21:38:52.406Z,6.83
2018-06-24T21:41:20.641Z,6.77
2018-06-24T21:43:48.942Z,6.43
2018-06-24T21:46:17.258Z,7.17
2018-06-24T21:48:45.664Z,7.00
2018-06-24T21:51:13.948Z,6.12
2018-06-24T21:53:42.390Z,6.07
2018-06-24T21:56:10.690Z,6.27
2018-06-24T21:58:38.963Z,7.27
2018-06-24T22:01:07.312Z,7.33
2018-06-24T22:03:35.578Z,6.30
2018-06-24T22:06:03.901Z,6.70
2018-06-24T22:08:32.238Z,6.97
2018-06-24T22:11:00.788Z,7.10
2018-06-24T22:13:29.122Z,6.63
2018-06-24T22:15:57.377Z,6.30
2018-06-24T22:18:25.688Z,7.07
2018-06-24T22:20:53.927Z,6.00
2018-06-24T22:23:22.222Z,6.87
2018-06-24T22:25:50.560Z,7.03
2018-06-24T22:28:18.824Z,6.17
2018-06-24T22:30:47.138Z,6.77
2018-06-24T22:33:16.448Z,6.03
2018-06-24T22:35:44.825Z,6.37
2018-06-24T22:38:13.229Z,6.40
2018-06-24T22:40:41.609Z,6.50
2018-06-24T22:43:09.906Z,6.47
2018-06-24T22:45:38.236Z,6.20
2018-06-24T22:48:06.557Z,6.40
2018-06-24T22:50:34.834Z,5.57
2018-06-24T22:53:03.142Z,5.83
2018-06-24T22:55:31.464Z,5.77
2018-06-24T22:57:59.874Z,5.47
2018-06-24T23:00:31.917Z,5.67
2018-06-24T23:03:04.661Z,5.63
2018-06-24T23:05:32.955Z,5.40
2018-06-24T23:08:01.327Z,5.67
2018-06-24T23:10:29.765Z,6.30
2018-06-24T23:12:58.097Z,5.93
2018-06-24T23:15:26.570Z,6.43
2018-06-24T23:17:54.919Z,5.80
2018-06-24T23:20:23.228Z,5.30
2018-06-24T23:22:51.543Z,6.13
2018-06-24T23:25:19.913Z,5.77
2018-06-24T23:27:48.237Z,5.22
2018-06-24T23:30:16.598Z,5.57
2018-06-24T23:32:44.944Z,6.17
2018-06-24T23:35:13.383Z,6.07
2018-06-24T23:37:41.867Z,5.87
2018-06-24T23:40:10.190Z,5.77
2018-06-24T23:42:38.502Z,5.60
2018-06-24T23:45:06.773Z,4.80
2018-06-24T23:47:35.120Z,5.70
2018-06-24T23:50:03.503Z,6.00
2018-06-24T23:52:31.872Z,5.00
2018-06-24T23:55:00.393Z,6.20
2018-06-24T23:57:28.695Z,6.20
2018-06-24T23:59:57.159Z,5.67
